Time;durP1;ratioP1;P1;durP2;ratioP2;P2;SDS_P1;SDS_P2;PMS_P1;PMS_P2;Temp;Humidity;BMP_temperature;BMP_pressure;BME280_temperature;BME280_humidity;BME280_pressure;Samples;Min_cycle;Max_cycle;Signal;HPM_P1;HPM_P2
2023/07/27 00:01:33;;;;;;;10.27;2.60;;;23.50;99.90;;;;;;7402927;19;19910;-72
2023/07/27 00:03:59;;;;;;;12.43;3.17;;;23.50;99.90;;;;;;7399378;19;20339;-72
2023/07/27 00:06:25;;;;;;;12.25;2.33;;;23.40;99.90;;;;;;7398486;19;19918;-72
2023/07/27 00:08:51;;;;;;;13.65;2.75;;;23.50;99.90;;;;;;7401180;19;19922;-73
2023/07/27 00:11:18;;;;;;;11.23;2.78;;;23.50;99.90;;;;;;7398523;19;20251;-72
2023/07/27 00:13:44;;;;;;;12.52;3.15;;;23.50;99.90;;;;;;7398891;19;19918;-72
2023/07/27 00:16:10;;;;;;;14.02;3.00;;;23.40;99.90;;;;;;7400895;19;20395;-73
2023/07/27 00:18:36;;;;;;;14.07;2.63;;;23.40;99.90;;;;;;7401264;19;20080;-73
2023/07/27 00:21:02;;;;;;;12.23;2.92;;;23.30;99.90;;;;;;7399022;19;19918;-72
2023/07/27 00:23:28;;;;;;;10.77;3.08;;;23.30;99.90;;;;;;7400438;19;20367;-73
2023/07/27 00:25:53;;;;;;;12.32;2.47;;;23.20;99.90;;;;;;7399883;19;19970;-72
2023/07/27 00:28:19;;;;;;;12.10;3.45;;;23.20;99.90;;;;;;7400156;19;20574;-72
2023/07/27 00:30:50;;;;;;;12.00;2.97;;;23.20;99.90;;;;;;7401206;19;20310;-73
2023/07/27 00:33:16;;;;;;;15.35;2.90;;;23.20;99.90;;;;;;7399679;19;19918;-74
2023/07/27 00:35:43;;;;;;;13.32;3.05;;;23.20;99.90;;;;;;7399702;19;19942;-72
2023/07/27 00:38:09;;;;;;;16.70;2.72;;;23.20;99.90;;;;;;7399136;19;19918;-72
2023/07/27 00:40:34;;;;;;;9.73;3.33;;;23.20;99.90;;;;;;7400951;19;19914;-72
2023/07/27 00:43:00;;;;;;;14.18;2.90;;;23.20;99.90;;;;;;7400956;19;19935;-73
2023/07/27 00:45:27;;;;;;;12.95;2.83;;;23.20;99.90;;;;;;7399190;19;19914;-72
2023/07/27 00:47:54;;;;;;;14.18;3.08;;;23.10;99.90;;;;;;7399017;19;19923;-73
2023/07/27 00:50:20;;;;;;;12.18;2.65;;;23.10;99.90;;;;;;7398474;19;19929;-72
2023/07/27 00:52:46;;;;;;;11.25;2.65;;;23.10;99.90;;;;;;7399563;19;20264;-74
2023/07/27 00:55:11;;;;;;;10.90;2.30;;;23.10;99.90;;;;;;7398156;19;19922;-72
2023/07/27 00:57:37;;;;;;;10.77;2.70;;;23.10;99.90;;;;;;7399752;19;19986;-73
2023/07/27 01:00:03;;;;;;;13.05;2.58;;;23.10;99.90;;;;;;7396165;19;20312;-73
2023/07/27 01:02:29;;;;;;;11.18;2.85;;;23.10;99.90;;;;;;7399859;19;19929;-72
2023/07/27 01:04:55;;;;;;;10.80;2.60;;;23.10;99.90;;;;;;7396478;19;19922;-72
2023/07/27 01:07:21;;;;;;;9.48;2.85;;;23.10;99.90;;;;;;7399247;19;19922;-73
2023/07/27 01:09:47;;;;;;;11.98;2.55;;;23.00;99.90;;;;;;7399361;19;19919;-72
2023/07/27 01:12:23;;;;;;;11.43;2.70;;;23.00;99.90;;;;;;7397491;19;19934;-73
2023/07/27 01:15:11;;;;;;;12.05;3.13;;;23.00;99.90;;;;;;7399495;19;19919;-73
2023/07/27 01:17:55;;;;;;;10.32;2.92;;;23.00;99.90;;;;;;7397239;19;19974;-73
2023/07/27 01:20:46;;;;;;;12.75;2.42;;;23.00;99.90;;;;;;7397455;19;19926;-73
2023/07/27 01:23:49;;;;;;;17.90;3.03;;;23.00;99.90;;;;;;7397207;19;20280;-74
2023/07/27 01:26:21;;;;;;;12.65;2.70;;;23.00;99.90;;;;;;7356825;19;19958;-72
2023/07/27 01:28:53;;;;;;;10.75;2.53;;;23.00;99.90;;;;;;7396898;19;19915;-72
2023/07/27 01:31:23;;;;;;;9.05;2.30;;;23.00;99.90;;;;;;7398673;19;19914;-72
2023/07/27 01:33:57;;;;;;;8.88;3.03;;;23.00;99.90;;;;;;7393934;19;19966;-73
2023/07/27 01:36:26;;;;;;;8.68;2.30;;;23.00;99.90;;;;;;7397013;19;19918;-72
2023/07/27 01:38:54;;;;;;;13.15;2.40;;;22.90;99.90;;;;;;7394840;19;19922;-73
2023/07/27 01:41:23;;;;;;;9.98;3.17;;;22.90;99.90;;;;;;7395378;19;19914;-73
2023/07/27 01:43:50;;;;;;;11.25;2.55;;;22.90;99.90;;;;;;7395854;19;19927;-72
2023/07/27 01:46:17;;;;;;;13.75;3.20;;;22.90;99.90;;;;;;7397300;19;19939;-73
2023/07/27 01:48:44;;;;;;;11.07;2.90;;;22.80;99.90;;;;;;7396427;19;19911;-72
2023/07/27 01:51:10;;;;;;;11.45;3.00;;;22.80;99.90;;;;;;7395400;19;19929;-72
2023/07/27 01:53:39;;;;;;;12.23;2.83;;;22.80;99.90;;;;;;7396570;19;19915;-72
2023/07/27 01:56:06;;;;;;;13.13;3.25;;;22.80;99.90;;;;;;7394800;19;19922;-71
2023/07/27 01:58:35;;;;;;;17.77;3.45;;;22.80;99.90;;;;;;7395999;19;19914;-73
2023/07/27 02:01:01;;;;;;;11.23;2.67;;;22.80;99.90;;;;;;7396044;19;20331;-73
2023/07/27 02:03:27;;;;;;;13.10;2.60;;;22.80;99.90;;;;;;7395174;19;19939;-72
2023/07/27 02:05:52;;;;;;;9.63;3.00;;;22.80;99.90;;;;;;7396395;19;20006;-74
2023/07/27 02:08:18;;;;;;;9.65;2.80;;;22.80;99.90;;;;;;7396738;19;20025;-73
2023/07/27 02:10:51;;;;;;;6.78;2.42;;;22.70;99.90;;;;;;7398533;19;20370;-73
2023/07/27 02:13:26;;;;;;;9.73;2.78;;;22.70;99.90;;;;;;7402173;19;19911;-73
2023/07/27 02:16:02;;;;;;;8.15;2.40;;;22.70;99.90;;;;;;7381584;19;19922;-73
2023/07/27 02:18:29;;;;;;;8.25;2.63;;;22.70;99.90;;;;;;7402545;19;20383;-73
2023/07/27 02:20:56;;;;;;;12.02;2.67;;;22.70;99.90;;;;;;7401120;19;19947;-73
2023/07/27 02:23:23;;;;;;;12.60;2.92;;;22.70;99.90;;;;;;7398320;19;19915;-73
2023/07/27 02:25:49;;;;;;;16.15;3.10;;;22.70;99.90;;;;;;7401369;19;19922;-72
2023/07/27 02:28:15;;;;;;;18.48;3.75;;;22.70;99.90;;;;;;7402603;19;19922;-73
2023/07/27 02:30:40;;;;;;;8.45;2.83;;;22.60;99.90;;;;;;7404680;19;19926;-72
2023/07/27 02:33:06;;;;;;;9.68;2.85;;;22.70;99.90;;;;;;7401211;19;19919;-73
2023/07/27 02:35:32;;;;;;;11.85;3.28;;;22.70;99.90;;;;;;7405186;19;19923;-73
2023/07/27 02:37:58;;;;;;;12.60;3.47;;;22.70;99.90;;;;;;7405334;19;19919;-72
2023/07/27 02:40:24;;;;;;;9.63;3.20;;;22.60;99.90;;;;;;7400715;19;19915;-73
2023/07/27 02:42:49;;;;;;;9.27;3.20;;;22.60;99.90;;;;;;7404192;19;19919;-73
2023/07/27 02:45:15;;;;;;;11.98;3.17;;;22.60;99.90;;;;;;7401961;19;19910;-73
2023/07/27 02:47:41;;;;;;;7.70;3.10;;;22.60;99.90;;;;;;7402751;19;19922;-73
2023/07/27 02:50:07;;;;;;;9.77;2.65;;;22.60;99.90;;;;;;7402627;19;19910;-73
2023/07/27 02:52:33;;;;;;;10.05;2.95;;;22.50;99.90;;;;;;7402715;19;20343;-73
2023/07/27 02:54:59;;;;;;;9.85;2.72;;;22.50;99.90;;;;;;7403964;19;19956;-73
2023/07/27 02:57:25;;;;;;;15.45;3.08;;;22.50;99.90;;;;;;7403158;19;19932;-73
2023/07/27 02:59:50;;;;;;;13.15;3.63;;;22.40;99.90;;;;;;7402938;19;19949;-72
2023/07/27 03:02:17;;;;;;;13.77;2.80;;;22.40;99.90;;;;;;7400703;19;19911;-73
2023/07/27 03:04:43;;;;;;;14.40;2.97;;;22.40;99.90;;;;;;7402125;19;19914;-72
2023/07/27 03:07:08;;;;;;;12.23;3.00;;;22.40;99.90;;;;;;7402178;19;19982;-72
2023/07/27 03:09:35;;;;;;;8.05;2.38;;;22.40;99.90;;;;;;7401798;19;19922;-72
2023/07/27 03:12:00;;;;;;;12.60;3.03;;;22.30;99.90;;;;;;7402700;19;19919;-74
2023/07/27 03:14:26;;;;;;;13.77;2.78;;;22.30;99.90;;;;;;7399915;19;19957;-73
2023/07/27 03:16:52;;;;;;;16.42;3.65;;;22.30;99.90;;;;;;7402036;19;19915;-73
2023/07/27 03:19:19;;;;;;;13.40;2.90;;;22.40;99.90;;;;;;7402269;19;19941;-73
2023/07/27 03:21:45;;;;;;;13.35;3.40;;;22.30;99.90;;;;;;7402659;19;19915;-72
2023/07/27 03:24:16;;;;;;;12.98;2.70;;;22.40;99.90;;;;;;7398264;19;19931;-73
2023/07/27 03:26:43;;;;;;;14.55;2.95;;;22.30;99.90;;;;;;7402393;19;19919;-72
2023/07/27 03:29:09;;;;;;;9.90;3.17;;;22.30;99.90;;;;;;7401131;19;20010;-73
2023/07/27 03:31:34;;;;;;;12.27;3.25;;;22.30;99.90;;;;;;7400868;19;20331;-73
2023/07/27 03:34:00;;;;;;;8.93;2.30;;;22.30;99.90;;;;;;7401094;19;19950;-73
2023/07/27 03:36:26;;;;;;;12.90;3.30;;;22.30;99.90;;;;;;7399239;19;20280;-72
2023/07/27 03:38:52;;;;;;;10.40;2.85;;;22.30;99.90;;;;;;7401818;19;19914;-72
2023/07/27 03:41:18;;;;;;;10.85;2.45;;;22.30;99.90;;;;;;7378491;19;19914;-72
2023/07/27 03:43:43;;;;;;;10.48;2.72;;;22.20;99.90;;;;;;7402822;19;19922;-73
2023/07/27 03:46:09;;;;;;;10.23;2.33;;;22.30;99.90;;;;;;7367954;19;19922;-72
2023/07/27 03:48:35;;;;;;;13.05;2.88;;;22.20;99.90;;;;;;7402435;19;20361;-73
2023/07/27 03:51:02;;;;;;;9.68;3.08;;;22.30;99.90;;;;;;7400683;19;19914;-73
2023/07/27 03:53:30;;;;;;;8.30;2.78;;;22.30;99.90;;;;;;7400308;19;20381;-72
2023/07/27 03:55:56;;;;;;;11.10;2.97;;;22.30;99.90;;;;;;7403125;19;19917;-73
2023/07/27 03:58:22;;;;;;;12.32;2.90;;;22.30;99.90;;;;;;7399371;19;20085;-73
2023/07/27 04:00:48;;;;;;;;;;;22.30;99.90;;;;;;7403570;19;19910;-72
2023/07/27 04:03:14;;;;;;;12.38;2.97;;;22.20;99.90;;;;;;7401396;19;19925;-73
2023/07/27 04:05:40;;;;;;;14.77;3.15;;;22.20;99.90;;;;;;7400926;19;19919;-73
2023/07/27 04:08:07;;;;;;;12.40;2.72;;;22.20;99.90;;;;;;7399482;19;19930;-73
2023/07/27 04:10:33;;;;;;;12.70;2.85;;;22.20;99.90;;;;;;7401496;19;19918;-73
2023/07/27 04:12:59;;;;;;;9.77;2.85;;;22.20;99.90;;;;;;7403075;19;19915;-73
2023/07/27 04:15:24;;;;;;;10.57;3.10;;;22.20;99.90;;;;;;7398758;19;19918;-73
2023/07/27 04:17:50;;;;;;;9.75;2.45;;;22.20;99.90;;;;;;7402143;19;19923;-73
2023/07/27 04:20:16;;;;;;;8.60;2.70;;;22.20;99.90;;;;;;7400160;19;19955;-72
2023/07/27 04:22:42;;;;;;;13.35;3.50;;;22.20;99.90;;;;;;7401735;19;19918;-73
2023/07/27 04:25:08;;;;;;;13.15;2.63;;;22.20;99.90;;;;;;7398487;19;19917;-73
2023/07/27 04:27:34;;;;;;;9.65;3.03;;;22.20;99.90;;;;;;7399988;19;19918;-73
2023/07/27 04:30:00;;;;;;;11.98;2.75;;;22.10;99.90;;;;;;7399300;19;19957;-72
2023/07/27 04:32:25;;;;;;;10.52;2.80;;;22.20;99.90;;;;;;7367976;19;19926;-73
2023/07/27 04:34:51;;;;;;;12.13;2.42;;;22.10;99.90;;;;;;7398524;19;19911;-74
2023/07/27 04:37:17;;;;;;;9.85;2.38;;;22.20;99.90;;;;;;7399416;19;19914;-73
2023/07/27 04:39:43;;;;;;;8.85;2.92;;;22.20;99.90;;;;;;7400167;19;19918;-73
2023/07/27 04:42:09;;;;;;;9.57;2.80;;;22.30;99.90;;;;;;7396692;19;19940;-73
2023/07/27 04:44:35;;;;;;;11.77;2.75;;;22.30;99.90;;;;;;7401756;19;19922;-72
2023/07/27 04:47:00;;;;;;;9.45;2.55;;;22.30;99.90;;;;;;7400878;19;19945;-72
2023/07/27 04:49:26;;;;;;;13.30;3.60;;;22.40;99.90;;;;;;7399371;19;20635;-74
2023/07/27 04:51:52;;;;;;;13.13;3.08;;;22.50;99.90;;;;;;7399276;19;20253;-73
2023/07/27 04:54:19;;;;;;;13.27;2.90;;;22.50;99.90;;;;;;7399151;19;19982;-73
2023/07/27 04:56:45;;;;;;;11.68;2.83;;;22.50;99.90;;;;;;7398169;19;19918;-73
2023/07/27 04:59:11;;;;;;;9.48;3.17;;;22.50;99.90;;;;;;7398310;19;19922;-73
2023/07/27 05:01:37;;;;;;;10.68;3.08;;;22.50;99.90;;;;;;7401047;19;19990;-72
2023/07/27 05:04:02;;;;;;;10.65;3.47;;;22.50;99.90;;;;;;7398691;19;19922;-73
2023/07/27 05:06:29;;;;;;;10.52;3.17;;;22.50;99.90;;;;;;7400498;19;19930;-73
2023/07/27 05:08:54;;;;;;;14.65;3.45;;;22.50;99.90;;;;;;7397584;19;19911;-73
2023/07/27 05:11:20;;;;;;;12.55;4.50;;;22.50;99.90;;;;;;7366556;19;19915;-73
2023/07/27 05:13:46;;;;;;;10.60;3.85;;;22.60;99.90;;;;;;7380531;19;19925;-73
2023/07/27 05:16:12;;;;;;;10.80;3.05;;;22.70;99.90;;;;;;7398056;19;19919;-73
2023/07/27 05:18:37;;;;;;;12.05;3.13;;;22.80;99.90;;;;;;7399178;19;20239;-72
2023/07/27 05:21:04;;;;;;;10.02;3.20;;;22.90;99.90;;;;;;7395732;19;20244;-73
2023/07/27 05:23:29;;;;;;;8.05;3.05;;;22.90;99.90;;;;;;7402084;19;19922;-73
2023/07/27 05:25:55;;;;;;;10.60;2.80;;;23.00;99.90;;;;;;7399586;19;19935;-73
2023/07/27 05:28:21;;;;;;;14.98;2.78;;;23.00;99.90;;;;;;7399193;19;19930;-73
2023/07/27 05:30:47;;;;;;;10.85;2.90;;;23.10;99.90;;;;;;7401143;19;19914;-73
2023/07/27 05:33:13;;;;;;;9.20;3.60;;;23.10;99.90;;;;;;7396053;19;19935;-74
2023/07/27 05:35:39;;;;;;;;;;;23.10;99.90;;;;;;7401499;19;19930;-74
2023/07/27 05:38:05;;;;;;;10.48;2.80;;;23.20;99.90;;;;;;7398523;19;19918;-72
2023/07/27 05:40:34;;;;;;;10.43;3.05;;;23.30;99.90;;;;;;7401120;19;19907;-72
2023/07/27 05:42:59;;;;;;;15.57;5.85;;;23.30;99.90;;;;;;7399196;19;20002;-72
2023/07/27 05:45:25;;;;;;;19.63;6.63;;;23.30;99.90;;;;;;7397274;19;20331;-73
2023/07/27 05:47:51;;;;;;;18.65;5.53;;;23.40;99.90;;;;;;7405007;19;19922;-73
2023/07/27 05:50:17;;;;;;;15.95;3.47;;;23.40;99.90;;;;;;7405636;19;19925;-73
2023/07/27 05:52:43;;;;;;;9.98;2.63;;;23.50;99.90;;;;;;7402129;19;19923;-72
2023/07/27 05:55:08;;;;;;;13.10;2.92;;;23.50;99.90;;;;;;7405496;19;19932;-74
2023/07/27 05:57:34;;;;;;;8.38;2.38;;;23.60;99.70;;;;;;7402055;19;19945;-73
2023/07/27 06:00:00;;;;;;;10.25;2.22;;;23.70;99.40;;;;;;7406446;19;19970;-73
2023/07/27 06:02:26;;;;;;;8.27;2.55;;;23.70;98.90;;;;;;7402839;19;19925;-74
2023/07/27 06:04:51;;;;;;;9.40;2.25;;;23.70;99.00;;;;;;7403762;19;19948;-72
2023/07/27 06:07:17;;;;;;;10.10;2.85;;;23.70;98.70;;;;;;7403900;19;20250;-74
2023/07/27 06:09:43;;;;;;;11.57;2.70;;;23.80;98.40;;;;;;7406126;19;19939;-73
2023/07/27 06:12:11;;;;;;;11.88;2.75;;;23.90;97.40;;;;;;7403458;19;19930;-73
2023/07/27 06:14:41;;;;;;;8.52;2.33;;;23.90;97.10;;;;;;7406590;19;19907;-74
2023/07/27 06:17:07;;;;;;;10.32;2.65;;;23.90;97.70;;;;;;7402563;19;19946;-73
2023/07/27 06:19:33;;;;;;;11.60;2.40;;;24.00;96.90;;;;;;7404070;19;19923;-73
2023/07/27 06:21:59;;;;;;;9.57;3.15;;;23.90;96.20;;;;;;7404042;19;19918;-72
2023/07/27 06:24:25;;;;;;;10.95;2.60;;;24.00;96.00;;;;;;7402959;19;19911;-73
2023/07/27 06:26:51;;;;;;;11.38;2.80;;;24.00;95.80;;;;;;7402418;19;19923;-73
2023/07/27 06:29:16;;;;;;;11.48;2.60;;;24.10;96.40;;;;;;7401978;19;19942;-73
2023/07/27 06:31:42;;;;;;;11.63;2.75;;;24.20;95.70;;;;;;7402512;19;19931;-73
2023/07/27 06:34:08;;;;;;;12.88;3.53;;;24.20;95.50;;;;;;7402820;19;20413;-72
2023/07/27 06:36:34;;;;;;;8.63;2.60;;;24.20;95.30;;;;;;7404043;19;20360;-73
2023/07/27 06:38:59;;;;;;;10.13;2.55;;;24.40;95.40;;;;;;7405968;19;19927;-73
2023/07/27 06:41:27;;;;;;;15.55;3.70;;;24.40;94.80;;;;;;7382192;19;20669;-73
2023/07/27 06:43:52;;;;;;;12.90;3.17;;;24.40;94.90;;;;;;7402022;19;19914;-73
2023/07/27 06:46:19;;;;;;;12.32;2.92;;;24.50;95.30;;;;;;7405267;19;19941;-73
2023/07/27 06:48:46;;;;;;;9.38;2.70;;;24.40;95.50;;;;;;7405571;19;20462;-73
2023/07/27 06:51:12;;;;;;;9.40;2.60;;;24.50;95.40;;;;;;7404146;19;19914;-73
2023/07/27 06:53:38;;;;;;;10.15;2.45;;;24.50;94.40;;;;;;7409229;19;19914;-74
2023/07/27 06:56:04;;;;;;;11.43;3.20;;;24.70;93.90;;;;;;7372802;19;19925;-73
2023/07/27 06:58:32;;;;;;;11.07;3.03;;;24.80;93.40;;;;;;7401287;19;19922;-74
2023/07/27 07:01:01;;;;;;;10.60;2.60;;;24.90;92.50;;;;;;7403256;19;19910;-73
2023/07/27 07:03:27;;;;;;;14.63;3.40;;;24.70;92.40;;;;;;7400745;19;19914;-73
2023/07/27 07:05:55;;;;;;;13.63;2.60;;;24.90;92.60;;;;;;7404688;19;19943;-73
2023/07/27 07:08:21;;;;;;;10.68;2.97;;;24.90;92.20;;;;;;7402820;19;19922;-73
2023/07/27 07:10:47;;;;;;;12.75;2.70;;;24.90;91.50;;;;;;7403756;19;19914;-73
2023/07/27 07:13:13;;;;;;;9.38;2.90;;;25.00;91.10;;;;;;7381966;19;19921;-73
2023/07/27 07:15:39;;;;;;;7.65;2.53;;;25.10;89.80;;;;;;7402337;19;20473;-73
2023/07/27 07:18:05;;;;;;;11.10;2.67;;;25.20;90.00;;;;;;7401185;19;19922;-73
2023/07/27 07:20:31;;;;;;;13.00;3.10;;;25.30;89.40;;;;;;7396415;19;19929;-72
2023/07/27 07:22:56;;;;;;;9.85;2.60;;;25.30;88.60;;;;;;7403326;19;19922;-74
2023/07/27 07:25:22;;;;;;;8.10;2.35;;;25.30;87.00;;;;;;7399832;19;19994;-73
2023/07/27 07:27:48;;;;;;;12.10;3.00;;;25.20;86.30;;;;;;7401041;19;19914;-73
2023/07/27 07:30:14;;;;;;;13.93;3.58;;;25.20;86.40;;;;;;7400875;19;19922;-73
2023/07/27 07:32:40;;;;;;;9.30;2.80;;;25.30;85.90;;;;;;7400446;19;19934;-73
2023/07/27 07:35:06;;;;;;;10.15;3.22;;;25.40;85.30;;;;;;7403185;19;19918;-73
2023/07/27 07:37:31;;;;;;;9.68;2.58;;;25.50;84.90;;;;;;7402182;19;20297;-72
2023/07/27 07:39:57;;;;;;;11.25;3.10;;;25.70;84.40;;;;;;7400902;19;19970;-74
2023/07/27 07:42:23;;;;;;;8.80;2.90;;;25.60;85.40;;;;;;7400050;19;19926;-73
2023/07/27 07:44:49;;;;;;;10.63;2.90;;;25.30;86.90;;;;;;7401599;19;19917;-72
2023/07/27 07:47:15;;;;;;;9.38;2.40;;;25.30;88.00;;;;;;7399576;19;20480;-74
2023/07/27 07:49:40;;;;;;;7.68;2.92;;;25.30;88.10;;;;;;7400157;19;20802;-73
2023/07/27 07:52:06;;;;;;;8.20;3.15;;;25.50;88.40;;;;;;7399301;19;20754;-73
2023/07/27 07:54:32;;;;;;;9.32;2.60;;;25.60;88.70;;;;;;7403698;19;19925;-74
2023/07/27 07:56:59;;;;;;;10.63;3.60;;;25.50;88.60;;;;;;7403050;19;20387;-72
2023/07/27 07:59:25;;;;;;;6.85;2.50;;;25.50;89.80;;;;;;7400732;19;20016;-72
2023/07/27 08:01:51;;;;;;;9.02;3.13;;;25.70;89.70;;;;;;7401397;19;20335;-73
2023/07/27 08:04:18;;;;;;;13.05;3.35;;;25.80;89.10;;;;;;7400008;19;19982;-74
2023/07/27 08:06:44;;;;;;;7.90;2.65;;;26.10;89.70;;;;;;7400518;19;19919;-73
2023/07/27 08:09:10;;;;;;;8.73;2.70;;;26.00;91.70;;;;;;7400240;19;19919;-73
2023/07/27 08:11:37;;;;;;;12.15;2.95;;;26.00;92.40;;;;;;7401807;19;19975;-73
2023/07/27 08:14:03;;;;;;;11.07;3.15;;;26.00;93.70;;;;;;7401020;19;19922;-73
2023/07/27 08:16:31;;;;;;;11.25;3.38;;;25.80;95.50;;;;;;7399922;19;19918;-71
2023/07/27 08:18:57;;;;;;;15.52;3.28;;;25.60;95.50;;;;;;7400409;19;19919;-71
2023/07/27 08:21:24;;;;;;;14.80;2.67;;;25.70;95.30;;;;;;7398631;19;19918;-71
2023/07/27 08:23:52;;;;;;;10.43;2.95;;;25.80;95.00;;;;;;7398869;19;20014;-71
2023/07/27 08:26:18;;;;;;;12.80;2.85;;;25.90;94.00;;;;;;7397698;19;19907;-72
2023/07/27 08:28:45;;;;;;;10.07;3.45;;;25.80;92.80;;;;;;7393664;19;19922;-72
2023/07/27 08:31:11;;;;;;;13.52;2.92;;;25.90;93.00;;;;;;7398978;19;19987;-72
2023/07/27 08:33:37;;;;;;;14.98;3.53;;;26.10;93.20;;;;;;7399615;19;19928;-72
2023/07/27 08:36:03;;;;;;;11.95;3.63;;;26.00;92.80;;;;;;7398266;19;19915;-72
2023/07/27 08:38:31;;;;;;;13.20;3.70;;;26.10;92.80;;;;;;7399543;19;19910;-72
2023/07/27 08:41:00;;;;;;;11.77;3.08;;;26.40;92.70;;;;;;7399408;19;19919;-73
2023/07/27 08:43:27;;;;;;;11.65;3.47;;;26.60;91.70;;;;;;7395927;19;19918;-72
2023/07/27 08:45:54;;;;;;;14.93;3.70;;;26.70;91.30;;;;;;7395248;19;20309;-72
2023/07/27 08:48:22;;;;;;;16.77;4.22;;;26.70;91.80;;;;;;7393137;19;19927;-73
2023/07/27 08:50:48;;;;;;;10.75;3.90;;;26.80;91.50;;;;;;7393276;19;20444;-72
2023/07/27 08:53:18;;;;;;;9.60;3.35;;;26.80;91.30;;;;;;7392909;19;19918;-71
2023/07/27 08:55:44;;;;;;;13.25;3.90;;;26.80;91.40;;;;;;7391724;19;19969;-73
2023/07/27 08:58:11;;;;;;;11.13;3.13;;;26.90;91.40;;;;;;7395817;19;20305;-73
2023/07/27 09:00:40;;;;;;;12.95;3.88;;;26.70;91.60;;;;;;7388964;19;20039;-71
2023/07/27 09:03:07;;;;;;;10.15;3.42;;;27.00;91.10;;;;;;7393423;19;20418;-73
2023/07/27 09:05:57;;;;;;;13.85;3.70;;;27.10;90.20;;;;;;7393138;19;19991;-72
2023/07/27 09:08:26;;;;;;;;;;;27.20;90.10;;;;;;7396066;19;19933;-73
2023/07/27 09:10:51;;;;;;;12.68;3.33;;;27.30;90.40;;;;;;7390028;19;20751;-72
2023/07/27 09:13:17;;;;;;;10.60;3.15;;;27.30;90.10;;;;;;7380765;19;19927;-72
2023/07/27 09:15:45;;;;;;;13.23;3.95;;;27.30;90.00;;;;;;7392094;19;19917;-72
2023/07/27 09:18:13;;;;;;;8.05;2.90;;;27.20;90.30;;;;;;7389382;19;19951;-72
2023/07/27 09:20:43;;;;;;;14.32;3.90;;;26.80;90.60;;;;;;7396860;19;20387;-72
2023/07/27 09:23:17;;;;;;;11.40;3.58;;;26.70;91.30;;;;;;7385944;19;19918;-71
2023/07/27 09:25:52;;;;;;;12.27;2.97;;;26.50;91.90;;;;;;7398176;19;19925;-73
2023/07/27 09:28:28;;;;;;;12.35;3.83;;;26.20;92.90;;;;;;7377669;19;20337;-72
2023/07/27 09:31:05;;;;;;;9.27;3.42;;;26.30;93.70;;;;;;7392108;19;19910;-72
2023/07/27 09:33:31;;;;;;;10.77;2.88;;;26.10;94.00;;;;;;7392512;19;20343;-72
2023/07/27 09:35:57;;;;;;;13.70;2.90;;;26.20;94.00;;;;;;7390508;19;19934;-72
2023/07/27 09:38:27;;;;;;;15.02;4.10;;;26.30;94.10;;;;;;7393014;19;19942;-71
2023/07/27 09:40:53;;;;;;;10.85;2.90;;;26.20;94.60;;;;;;7392811;19;20538;-71
2023/07/27 09:43:23;;;;;;;10.38;3.70;;;25.90;95.50;;;;;;7389298;19;19923;-72
2023/07/27 09:45:58;;;;;;;9.88;2.67;;;25.90;95.70;;;;;;7388778;19;20823;-73
2023/07/27 09:48:25;;;;;;;8.82;2.85;;;25.80;96.00;;;;;;7395551;19;19925;-72
2023/07/27 09:50:54;;;;;;;13.20;3.53;;;25.60;97.20;;;;;;7385537;19;20313;-73
2023/07/27 09:53:21;;;;;;;17.35;3.35;;;25.90;96.50;;;;;;7395070;19;19915;-72
2023/07/27 09:55:50;;;;;;;11.80;3.15;;;26.00;96.40;;;;;;7392200;19;19998;-71
2023/07/27 09:58:16;;;;;;;10.15;2.83;;;25.80;96.40;;;;;;7392331;19;19945;-71
2023/07/27 10:00:42;;;;;;;11.63;3.47;;;25.80;97.30;;;;;;7385351;19;19918;-72
2023/07/27 10:03:09;;;;;;;14.90;3.42;;;25.60;97.60;;;;;;7390208;19;19925;-71
2023/07/27 10:05:42;;;;;;;14.27;3.00;;;26.00;97.30;;;;;;7389778;19;19994;-72
2023/07/27 10:08:09;;;;;;;11.23;3.22;;;26.20;95.70;;;;;;7383349;19;19931;-71
2023/07/27 10:10:39;;;;;;;10.57;2.97;;;26.10;95.90;;;;;;7393627;19;20505;-72
2023/07/27 10:13:18;;;;;;;10.25;3.40;;;26.50;94.10;;;;;;7390238;19;20330;-72
2023/07/27 10:15:44;;;;;;;10.90;2.75;;;26.70;93.60;;;;;;7391941;19;19943;-73
2023/07/27 10:18:14;;;;;;;10.82;3.17;;;26.90;92.60;;;;;;7397429;19;19910;-73
2023/07/27 10:20:41;;;;;;;10.15;2.80;;;26.90;92.60;;;;;;7386394;19;19967;-73
2023/07/27 10:23:18;;;;;;;10.70;3.42;;;26.90;92.10;;;;;;7389807;19;20469;-71
2023/07/27 10:25:56;;;;;;;7.70;2.95;;;26.80;92.60;;;;;;7394020;19;19933;-72
2023/07/27 10:28:41;;;;;;;9.85;3.67;;;26.80;92.20;;;;;;7391820;19;19935;-73
2023/07/27 10:31:17;;;;;;;10.38;3.33;;;26.90;92.10;;;;;;7378519;19;19938;-72
2023/07/27 10:34:07;;;;;;;11.70;3.35;;;26.90;92.00;;;;;;7397640;19;19997;-72
2023/07/27 10:36:52;;;;;;;12.23;3.20;;;27.10;92.10;;;;;;7402438;19;19915;-71
2023/07/27 10:39:48;;;;;;;12.40;4.45;;;27.00;92.20;;;;;;7399965;19;20337;-72
2023/07/27 10:42:26;;;;;;;13.07;3.95;;;27.20;91.80;;;;;;7403647;19;19922;-72
2023/07/27 10:44:53;;;;;;;;;;;27.80;90.80;;;;;;7403230;19;19926;-72
2023/07/27 10:47:27;;;;;;;8.98;3.25;;;28.20;89.20;;;;;;7402362;19;19928;-71
2023/07/27 10:49:56;;;;;;;8.05;2.80;;;28.00;89.80;;;;;;7401762;19;19918;-72
2023/07/27 10:52:23;;;;;;;14.27;3.30;;;27.90;89.30;;;;;;7399415;19;19946;-71
2023/07/27 10:54:51;;;;;;;12.40;3.72;;;27.50;90.00;;;;;;7402789;19;19914;-72
2023/07/27 10:57:18;;;;;;;13.55;4.18;;;27.90;89.90;;;;;;7400599;19;20673;-72
2023/07/27 10:59:49;;;;;;;13.90;3.13;;;28.10;88.70;;;;;;7400710;19;20363;-72
2023/07/27 11:02:22;;;;;;;9.68;3.05;;;28.10;88.80;;;;;;7398260;19;19964;-72
2023/07/27 11:04:49;;;;;;;10.75;3.30;;;28.20;88.30;;;;;;7403393;19;19958;-72
2023/07/27 11:07:29;;;;;;;11.75;3.72;;;28.10;88.40;;;;;;7397758;19;19947;-71
2023/07/27 11:09:55;;;;;;;12.95;3.63;;;28.20;89.50;;;;;;7402196;19;20022;-72
2023/07/27 11:12:21;;;;;;;12.27;3.95;;;28.90;86.90;;;;;;7399134;19;20286;-71
2023/07/27 11:14:47;;;;;;;12.40;4.30;;;28.50;87.70;;;;;;7401595;19;19935;-72
2023/07/27 11:17:14;;;;;;;9.95;3.55;;;28.10;89.10;;;;;;7398120;19;19918;-71
2023/07/27 11:19:42;;;;;;;11.45;3.90;;;28.30;89.60;;;;;;7397276;19;20327;-72
2023/07/27 11:22:08;;;;;;;17.33;4.78;;;28.60;89.00;;;;;;7387902;19;20316;-71
2023/07/27 11:24:37;;;;;;;14.25;3.67;;;28.30;90.10;;;;;;7402085;19;19918;-72
2023/07/27 11:27:05;;;;;;;12.48;3.65;;;28.90;88.80;;;;;;7397967;19;19922;-73
2023/07/27 11:29:32;;;;;;;9.70;3.30;;;28.70;88.60;;;;;;7388198;19;19935;-73
2023/07/27 11:31:59;;;;;;;12.48;4.03;;;28.70;89.10;;;;;;7393137;19;20331;-72
2023/07/27 11:34:28;;;;;;;13.60;3.85;;;29.40;86.70;;;;;;7391849;19;19922;-71
2023/07/27 11:36:56;;;;;;;11.90;4.22;;;28.70;86.60;;;;;;7401875;19;19980;-72
2023/07/27 11:39:22;;;;;;;11.95;4.15;;;29.00;87.50;;;;;;7390579;19;19974;-72
2023/07/27 11:41:49;;;;;;;9.32;3.50;;;29.10;86.30;;;;;;7392474;19;19966;-71
2023/07/27 11:44:27;;;;;;;11.02;3.92;;;29.40;84.90;;;;;;7394814;19;19919;-73
2023/07/27 11:46:54;;;;;;;;;;;30.00;83.20;;;;;;7398977;19;19926;-72
2023/07/27 11:49:22;;;;;;;11.05;3.92;;;30.00;81.00;;;;;;7392906;19;19919;-72
2023/07/27 11:51:49;;;;;;;9.05;3.88;;;29.60;82.70;;;;;;7398938;19;19982;-71
2023/07/27 11:54:27;;;;;;;11.95;3.70;;;28.80;84.80;;;;;;7390821;19;19911;-71
2023/07/27 11:56:53;;;;;;;;;;;28.90;86.10;;;;;;7404124;19;19946;-71
2023/07/27 11:59:20;;;;;;;16.67;4.93;;;28.60;86.60;;;;;;7392499;19;19922;-72
2023/07/27 12:01:51;;;;;;;8.10;4.07;;;28.60;87.20;;;;;;7394332;19;20859;-70
2023/07/27 12:04:21;;;;;;;10.73;3.88;;;28.80;86.10;;;;;;7399305;19;20323;-71
2023/07/27 12:06:48;;;;;;;11.63;3.65;;;29.40;83.30;;;;;;7400573;19;19946;-71
2023/07/27 12:09:14;;;;;;;9.02;3.38;;;29.50;84.40;;;;;;7410860;19;19925;-72
2023/07/27 12:11:40;;;;;;;8.48;3.38;;;29.60;83.30;;;;;;7403207;19;19922;-72
2023/07/27 12:14:07;;;;;;;9.43;2.95;;;28.90;86.80;;;;;;7401642;19;19951;-72
2023/07/27 12:16:41;;;;;;;15.15;3.38;;;28.50;89.50;;;;;;7381374;19;19935;-72
2023/07/27 12:19:07;;;;;;;13.40;3.47;;;28.30;90.70;;;;;;7400090;19;19914;-72
2023/07/27 12:21:38;;;;;;;10.00;3.40;;;28.60;90.80;;;;;;7403317;19;19918;-72
2023/07/27 12:24:11;;;;;;;6.75;3.22;;;28.50;90.60;;;;;;7369628;19;20339;-71
2023/07/27 12:26:38;;;;;;;6.80;3.00;;;28.20;91.20;;;;;;7402010;19;19990;-71
2023/07/27 12:29:04;;;;;;;11.38;4.80;;;28.50;91.00;;;;;;7383778;19;20357;-72
2023/07/27 12:31:31;;;;;;;9.63;3.40;;;28.50;90.80;;;;;;7400289;19;19911;-72
2023/07/27 12:33:56;;;;;;;9.65;3.97;;;28.90;90.70;;;;;;7401532;19;19934;-70
2023/07/27 12:36:24;;;;;;;8.38;3.63;;;28.20;91.40;;;;;;7398869;19;21280;-72
2023/07/27 12:38:51;;;;;;;11.77;3.10;;;28.90;91.10;;;;;;7398090;19;19914;-70
2023/07/27 12:41:18;;;;;;;10.38;4.05;;;28.90;90.10;;;;;;7397258;19;19930;-72
2023/07/27 12:43:44;;;;;;;10.02;3.15;;;28.70;91.00;;;;;;7400439;19;19931;-70